Time;durP1;ratioP1;P1;durP2;ratioP2;P2;SDS_P1;SDS_P2;PMS_P1;PMS_P2;Temp;Humidity;BMP_temperature;BMP_pressure;BME280_temperature;BME280_humidity;BME280_pressure;Samples;Min_cycle;Max_cycle;Signal;HPM_P1;HPM_P2
2022/10/04 00:01:50;;;;;;;8.83;6.80;;;5.50;99.90;;;;;;4974218;28;20473;-82
2022/10/04 00:04:24;;;;;;;13.70;6.37;;;5.50;99.90;;;;;;4974748;28;20465;-82
2022/10/04 00:06:57;;;;;;;8.27;6.67;;;5.50;99.90;;;;;;4973608;28;20460;-82
2022/10/04 00:09:28;;;;;;;6.43;5.53;;;5.50;99.90;;;;;;4973929;28;20496;-82
2022/10/04 00:11:56;;;;;;;11.00;6.87;;;5.50;99.90;;;;;;4975214;28;20458;-82
2022/10/04 00:14:28;;;;;;;12.67;6.47;;;5.40;99.90;;;;;;4978124;28;20453;-82
2022/10/04 00:16:55;;;;;;;9.13;6.00;;;;;;;;;;4991545;28;20460;-81
2022/10/04 00:19:37;;;;;;;12.90;7.47;;;5.40;99.90;;;;;;4998062;28;20458;-82
2022/10/04 00:22:21;;;;;;;10.93;7.20;;;5.40;99.90;;;;;;4979112;28;20882;-82
2022/10/04 00:25:19;;;;;;;11.77;7.80;;;5.30;99.90;;;;;;4974623;28;20473;-82
2022/10/04 00:28:27;;;;;;;14.07;7.70;;;5.30;99.90;;;;;;4974723;28;20446;-82
2022/10/04 00:31:18;;;;;;;15.67;7.73;;;5.30;99.90;;;;;;4974583;28;20493;-82
2022/10/04 00:33:48;;;;;;;10.47;7.07;;;5.30;99.90;;;;;;4974590;28;20442;-83
2022/10/04 00:36:55;;;;;;;11.37;8.00;;;5.20;99.90;;;;;;4973510;28;20462;-82
2022/10/04 00:39:41;;;;;;;11.23;7.80;;;5.30;99.90;;;;;;4972093;28;20474;-82
2022/10/04 00:42:48;;;;;;;13.10;8.10;;;5.20;99.90;;;;;;4974435;28;20458;-82
2022/10/04 00:45:29;;;;;;;13.47;6.90;;;5.20;99.90;;;;;;4974483;28;20458;-80
2022/10/04 00:48:15;;;;;;;11.20;7.70;;;5.20;99.90;;;;;;4974481;28;20453;-82
2022/10/04 00:50:46;;;;;;;12.00;7.60;;;5.20;99.90;;;;;;4973090;28;20501;-82
2022/10/04 00:53:21;;;;;;;11.57;6.90;;;5.10;99.90;;;;;;4973243;28;21028;-82
2022/10/04 00:55:53;;;;;;;11.30;7.57;;;5.10;99.90;;;;;;4974359;28;20968;-82
2022/10/04 00:58:25;;;;;;;17.00;7.13;;;5.10;99.90;;;;;;4974033;28;20505;-82
2022/10/04 01:00:54;;;;;;;9.73;6.30;;;5.00;99.90;;;;;;4974029;28;20470;-82
2022/10/04 01:03:29;;;;;;;12.87;6.13;;;6.80;99.90;;;;;;4974379;28;20464;-82
2022/10/04 01:05:58;;;;;;;15.80;7.43;;;;;;;;;;4973263;28;20632;-82
2022/10/04 01:08:31;;;;;;;8.10;6.50;;;5.30;99.90;;;;;;4973366;28;20565;-82
2022/10/04 01:11:03;;;;;;;10.20;5.70;;;5.10;99.90;;;;;;4974023;28;20504;-83
2022/10/04 01:13:31;;;;;;;10.57;6.37;;;;;;;;;;4976740;28;20549;-82
2022/10/04 01:16:01;;;;;;;14.50;6.50;;;5.00;99.90;;;;;;4980715;28;20453;-82
2022/10/04 01:18:31;;;;;;;10.00;6.63;;;5.00;99.90;;;;;;4980551;28;20453;-81
2022/10/04 01:21:00;;;;;;;8.80;6.00;;;5.00;99.90;;;;;;4979398;28;20457;-82
2022/10/04 01:23:41;;;;;;;9.90;5.27;;;4.80;99.90;;;;;;4979415;28;20468;-82
2022/10/04 01:26:36;;;;;;;8.50;6.10;;;5.00;99.90;;;;;;4980393;28;20458;-82
2022/10/04 01:29:08;;;;;;;10.30;6.47;;;4.90;99.90;;;;;;4979403;28;20470;-82
2022/10/04 01:31:36;;;;;;;12.10;5.80;;;5.00;99.90;;;;;;4980368;28;20453;-82
2022/10/04 01:34:05;;;;;;;12.37;5.53;;;4.90;99.90;;;;;;4980316;28;20817;-82
2022/10/04 01:36:32;;;;;;;8.77;5.40;;;;;;;;;;4979177;28;20791;-81
2022/10/04 01:39:01;;;;;;;12.93;7.10;;;4.90;99.90;;;;;;4978560;28;20450;-82
2022/10/04 01:41:36;;;;;;;11.20;5.93;;;5.00;99.90;;;;;;4961033;28;20817;-82
2022/10/04 01:44:06;;;;;;;12.70;5.70;;;4.90;99.90;;;;;;4960938;28;20533;-82
2022/10/04 01:46:36;;;;;;;9.07;6.20;;;4.90;99.90;;;;;;4960818;28;20876;-82
2022/10/04 01:49:07;;;;;;;6.67;5.50;;;4.90;99.90;;;;;;4960791;28;20470;-82
2022/10/04 01:51:39;;;;;;;9.47;5.80;;;4.90;99.90;;;;;;4959427;28;21025;-82
2022/10/04 01:54:10;;;;;;;8.70;5.37;;;4.80;99.90;;;;;;4963989;28;20476;-81
2022/10/04 01:56:44;;;;;;;6.73;4.83;;;4.80;99.90;;;;;;4980083;28;20450;-81
2022/10/04 01:59:16;;;;;;;9.80;5.60;;;4.70;99.90;;;;;;4980007;28;20524;-81
2022/10/04 02:01:48;;;;;;;10.60;5.60;;;4.80;99.90;;;;;;4980226;28;20454;-82
2022/10/04 02:04:19;;;;;;;6.90;4.60;;;4.80;99.90;;;;;;4980056;28;20462;-82
2022/10/04 02:06:48;;;;;;;8.67;6.30;;;4.80;99.90;;;;;;4979066;28;20466;-81
2022/10/04 02:09:22;;;;;;;8.70;5.93;;;4.80;99.90;;;;;;4977505;28;20473;-82
2022/10/04 02:11:52;;;;;;;7.23;5.40;;;4.80;99.90;;;;;;4979543;28;20458;-81
2022/10/04 02:14:22;;;;;;;6.20;5.20;;;4.80;99.90;;;;;;4980041;28;20540;-82
2022/10/04 02:16:52;;;;;;;7.67;4.83;;;4.80;99.90;;;;;;4979889;28;20449;-82
2022/10/04 02:19:20;;;;;;;7.37;5.00;;;4.70;99.90;;;;;;4979907;28;20931;-81
2022/10/04 02:21:48;;;;;;;6.33;4.47;;;;;;;;;;4979080;28;20824;-82
2022/10/04 02:24:17;;;;;;;5.80;5.20;;;4.60;99.90;;;;;;4978302;28;20469;-82
2022/10/04 02:26:49;;;;;;;8.13;4.83;;;;;;;;;;4976243;28;20812;-82
2022/10/04 02:29:16;;;;;;;7.57;5.60;;;;;;;;;;4976895;28;20449;-82
2022/10/04 02:34:28;;;;;;;8.33;5.00;;;;;;;;;;4975440;28;20450;-82
2022/10/04 02:36:56;;;;;;;5.80;5.00;;;;;;;;;;4976736;28;20948;-81
2022/10/04 02:39:26;;;;;;;7.33;5.07;;;4.60;99.90;;;;;;4975729;28;20466;-81
2022/10/04 02:41:58;;;;;;;12.50;5.53;;;4.60;99.90;;;;;;4976603;28;20949;-82
2022/10/04 02:44:28;;;;;;;9.10;5.90;;;4.60;99.90;;;;;;4976541;28;20517;-81
2022/10/04 02:47:05;;;;;;;11.20;6.33;;;4.60;99.90;;;;;;4976552;28;20451;-82
2022/10/04 02:49:36;;;;;;;10.20;5.40;;;4.50;99.90;;;;;;4975296;28;20800;-82
2022/10/04 02:52:07;;;;;;;7.43;5.00;;;4.50;99.90;;;;;;4974954;28;20498;-81
2022/10/04 02:54:42;;;;;;;6.30;5.23;;;4.50;99.90;;;;;;4976415;28;20450;-82
2022/10/04 02:57:16;;;;;;;5.40;4.90;;;4.40;99.90;;;;;;4975574;28;20949;-82
2022/10/04 02:59:43;;;;;;;7.70;4.90;;;;;;;;;;4976237;28;20879;-82
2022/10/04 03:02:23;;;;;;;6.03;4.50;;;4.50;99.90;;;;;;4974556;28;20477;-82
2022/10/04 03:04:52;;;;;;;7.90;5.20;;;4.50;99.90;;;;;;4973846;28;20497;-82
2022/10/04 03:07:19;;;;;;;7.03;5.90;;;;;;;;;;4975991;28;20946;-82
2022/10/04 03:09:48;;;;;;;8.20;5.00;;;;;;;;;;4966341;28;20542;-82
2022/10/04 03:12:15;;;;;;;7.60;5.30;;;;;;;;;;4956549;28;20459;-82
2022/10/04 03:14:43;;;;;;;6.97;5.30;;;;;;;;;;4971663;28;20965;-82
2022/10/04 03:17:10;;;;;;;5.30;4.47;;;;;;;;;;4975763;28;20456;-82
2022/10/04 03:19:38;;;;;;;6.70;5.87;;;;;;;;;;4973139;28;20456;-82
2022/10/04 03:22:09;;;;;;;6.97;5.37;;;4.40;99.90;;;;;;4967172;28;20537;-81
2022/10/04 03:24:45;;;;;;;8.53;5.80;;;4.40;99.90;;;;;;4975633;28;20481;-81
2022/10/04 03:27:17;;;;;;;8.07;4.60;;;4.50;99.90;;;;;;4975831;28;20517;-81
2022/10/04 03:29:44;;;;;;;12.50;5.60;;;;;;;;;;4975599;28;20454;-81
2022/10/04 03:32:17;;;;;;;6.50;5.07;;;4.40;99.90;;;;;;4975684;28;20462;-81
2022/10/04 03:34:55;;;;;;;6.97;5.47;;;4.40;99.90;;;;;;4974470;28;20454;-81
2022/10/04 03:37:23;;;;;;;7.57;4.70;;;;;;;;;;4975275;28;20461;-82
2022/10/04 03:39:52;;;;;;;6.60;5.00;;;;;;;;;;4975113;28;20450;-82
2022/10/04 03:42:23;;;;;;;7.90;5.70;;;4.50;99.90;;;;;;4975531;28;20501;-83
2022/10/04 03:44:52;;;;;;;5.10;4.43;;;4.50;99.90;;;;;;4975457;28;20552;-83
2022/10/04 03:47:21;;;;;;;6.50;4.90;;;;;;;;;;4975366;28;20438;-83
2022/10/04 03:49:48;;;;;;;5.83;4.63;;;;;;;;;;4973948;28;20450;-83
2022/10/04 03:52:20;;;;;;;7.07;5.00;;;4.50;99.90;;;;;;4975039;28;21001;-83
2022/10/04 03:54:48;;;;;;;6.70;5.00;;;4.60;99.90;;;;;;4975073;28;20450;-83
2022/10/04 03:57:16;;;;;;;5.80;4.73;;;4.50;99.90;;;;;;4975131;28;20461;-83
2022/10/04 03:59:44;;;;;;;5.77;5.17;;;;;;;;;;4972888;28;20486;-83
2022/10/04 04:02:19;;;;;;;6.83;5.13;;;4.60;99.90;;;;;;4975131;28;20446;-83
2022/10/04 04:04:54;;;;;;;6.60;5.03;;;4.60;99.90;;;;;;4970827;28;20469;-83
2022/10/04 04:07:25;;;;;;;7.53;5.17;;;4.60;99.90;;;;;;4974992;28;20452;-83
2022/10/04 04:09:58;;;;;;;5.80;4.53;;;4.60;99.90;;;;;;4975087;28;20481;-83
2022/10/04 04:12:33;;;;;;;7.90;5.40;;;4.60;99.90;;;;;;4973920;28;20473;-83
2022/10/04 04:15:06;;;;;;;5.90;4.87;;;4.60;99.90;;;;;;4973927;28;20462;-83
2022/10/04 04:17:40;;;;;;;6.30;4.70;;;4.60;99.90;;;;;;4973185;28;20477;-83
2022/10/04 04:20:17;;;;;;;11.70;5.07;;;4.60;99.90;;;;;;4973661;28;20817;-83
2022/10/04 04:22:47;;;;;;;8.90;5.87;;;4.60;99.90;;;;;;4972014;28;20470;-83
2022/10/04 04:25:16;;;;;;;8.57;4.70;;;4.60;99.90;;;;;;4973809;28;20477;-83
2022/10/04 04:27:47;;;;;;;8.60;6.10;;;4.60;99.90;;;;;;4973238;28;20463;-83
2022/10/04 04:30:17;;;;;;;7.90;5.63;;;4.60;99.90;;;;;;4974562;28;20512;-83
2022/10/04 04:32:49;;;;;;;6.10;5.50;;;4.60;99.90;;;;;;4972925;28;20469;-83
2022/10/04 04:35:25;;;;;;;8.27;6.03;;;4.70;99.90;;;;;;4973437;28;20840;-83
2022/10/04 04:38:14;;;;;;;13.50;6.37;;;4.70;99.90;;;;;;4972384;28;20472;-83
2022/10/04 04:40:41;;;;;;;12.60;6.80;;;;;;;;;;4974446;28;20454;-83
2022/10/04 04:43:14;;;;;;;8.30;5.67;;;5.20;99.90;;;;;;4972501;28;20497;-83
2022/10/04 04:45:43;;;;;;;10.03;6.50;;;;;;;;;;4973279;28;20822;-84
2022/10/04 04:48:15;;;;;;;12.93;6.63;;;5.80;99.90;;;;;;4973544;28;20446;-83
2022/10/04 04:50:43;;;;;;;16.30;6.83;;;;;;;;;;4973120;28;20485;-83
2022/10/04 04:53:15;;;;;;;9.93;6.57;;;5.90;99.90;;;;;;4974137;28;20486;-83
2022/10/04 04:55:46;;;;;;;21.83;11.07;;;5.90;99.90;;;;;;4974390;28;20454;-83
2022/10/04 04:58:20;;;;;;;15.20;8.40;;;5.90;99.90;;;;;;4974313;28;20478;-83
2022/10/04 05:00:55;;;;;;;12.33;6.70;;;6.00;99.90;;;;;;4972493;28;20807;-83
2022/10/04 05:03:22;;;;;;;8.37;6.27;;;;;;;;;;4971055;28;21024;-82
2022/10/04 05:05:50;;;;;;;9.30;5.97;;;;;;;;;;4971189;28;20553;-83
2022/10/04 05:08:20;;;;;;;11.57;5.93;;;6.00;99.90;;;;;;4974288;28;20450;-83
2022/10/04 05:11:04;;;;;;;10.57;6.70;;;5.90;99.90;;;;;;4972339;28;20521;-83
2022/10/04 05:13:37;;;;;;;11.17;5.67;;;5.60;99.90;;;;;;4971180;28;20932;-82
2022/10/04 05:16:11;;;;;;;12.33;6.80;;;5.40;99.90;;;;;;4972888;28;20470;-82
2022/10/04 05:18:38;;;;;;;9.07;6.40;;;;;;;;;;4973734;28;20469;-82
2022/10/04 05:21:08;;;;;;;10.77;6.27;;;5.40;99.90;;;;;;4972639;28;20450;-82
2022/10/04 05:23:36;;;;;;;11.80;5.47;;;;;;;;;;4973920;28;20453;-82
2022/10/04 05:26:05;;;;;;;7.30;5.40;;;5.30;99.90;;;;;;4973944;28;20442;-82
2022/10/04 05:28:33;;;;;;;8.20;5.80;;;;;;;;;;4974027;28;20454;-82
2022/10/04 05:31:21;;;;;;;13.20;6.03;;;5.10;99.90;;;;;;4973833;28;20497;-82
2022/10/04 05:33:51;;;;;;;8.77;6.23;;;5.10;99.90;;;;;;4958282;28;20447;-82
2022/10/04 05:36:34;;;;;;;9.27;5.80;;;5.20;99.90;;;;;;4963469;28;20465;-82
2022/10/04 05:39:05;;;;;;;12.53;5.37;;;;;;;;;;4973717;28;20465;-82
2022/10/04 05:41:39;;;;;;;9.30;6.60;;;5.20;99.90;;;;;;4973717;28;20548;-82
2022/10/04 05:44:24;;;;;;;11.23;6.80;;;5.20;99.90;;;;;;4972078;28;20488;-82
2022/10/04 05:46:54;;;;;;;13.30;6.67;;;;;;;;;;4971133;28;20467;-81
2022/10/04 05:49:23;;;;;;;8.90;6.30;;;5.30;99.90;;;;;;4971438;28;20466;-82
2022/10/04 05:51:54;;;;;;;9.20;6.60;;;5.40;99.90;;;;;;4972308;28;20505;-83
2022/10/04 05:54:23;;;;;;;9.40;6.27;;;5.50;99.90;;;;;;4972288;28;20466;-82
2022/10/04 05:57:23;;;;;;;10.97;6.73;;;5.50;99.90;;;;;;4970111;28;20505;-82
2022/10/04 06:00:11;;;;;;;7.33;5.87;;;5.60;99.90;;;;;;4972306;28;20477;-83
2022/10/04 06:03:02;;;;;;;7.73;6.10;;;5.60;99.90;;;;;;4977387;28;20450;-82
2022/10/04 06:05:42;;;;;;;7.57;5.20;;;5.70;99.90;;;;;;4974980;28;20454;-83
2022/10/04 06:08:17;;;;;;;7.40;5.93;;;5.70;99.90;;;;;;4977155;28;20456;-82
2022/10/04 06:11:01;;;;;;;13.70;6.70;;;5.90;99.90;;;;;;4977034;28;20449;-82
2022/10/04 06:13:50;;;;;;;6.83;5.23;;;5.90;99.90;;;;;;4977050;28;20454;-83
2022/10/04 06:16:24;;;;;;;9.63;6.50;;;6.10;99.90;;;;;;4977089;28;20454;-82
2022/10/04 06:19:33;;;;;;;8.70;5.27;;;6.10;99.90;;;;;;4977069;28;20456;-83
2022/10/04 06:22:14;;;;;;;10.00;6.10;;;6.10;99.90;;;;;;4964654;28;20461;-83
2022/10/04 06:24:45;;;;;;;10.20;6.20;;;6.30;99.90;;;;;;4976982;28;20457;-83
2022/10/04 06:27:17;;;;;;;8.13;6.17;;;6.30;99.90;;;;;;4976897;28;20501;-82
2022/10/04 06:29:49;;;;;;;7.33;5.63;;;6.40;99.90;;;;;;4976842;28;20980;-83
2022/10/04 06:32:43;;;;;;;11.17;5.77;;;6.50;99.90;;;;;;4976702;28;20503;-82
2022/10/04 06:35:42;;;;;;;12.00;6.73;;;6.50;99.90;;;;;;4975420;28;20456;-83
2022/10/04 06:38:46;;;;;;;6.90;6.20;;;6.60;99.90;;;;;;4976797;28;20463;-83
2022/10/04 06:41:33;;;;;;;10.53;6.80;;;6.70;99.90;;;;;;4976760;28;20496;-83
2022/10/04 06:44:41;;;;;;;11.20;7.73;;;6.90;99.90;;;;;;4976727;28;20460;-83
2022/10/04 06:47:22;;;;;;;7.43;5.80;;;7.10;99.90;;;;;;4967253;28;20462;-83
2022/10/04 06:49:54;;;;;;;11.60;5.80;;;7.40;99.90;;;;;;4975369;28;20472;-83
2022/10/04 06:52:26;;;;;;;10.73;7.10;;;;;;;;;;4976293;28;20510;-83
2022/10/04 06:55:29;;;;;;;11.73;6.17;;;7.90;99.90;;;;;;4976630;28;20824;-83
2022/10/04 06:58:19;;;;;;;9.03;6.63;;;8.10;99.90;;;;;;4975389;28;20482;-83
2022/10/04 07:00:51;;;;;;;13.23;5.80;;;;;;;;;;4976214;28;20868;-83
2022/10/04 07:03:26;;;;;;;8.67;6.10;;;8.30;99.90;;;;;;4976370;28;20455;-83
2022/10/04 07:05:57;;;;;;;9.23;5.27;;;8.40;99.90;;;;;;4974986;28;20481;-83
2022/10/04 07:08:31;;;;;;;9.60;6.50;;;8.50;99.90;;;;;;4965788;28;20510;-83
2022/10/04 07:11:04;;;;;;;8.40;5.30;;;8.70;99.90;;;;;;4956166;28;20919;-83
2022/10/04 07:13:41;;;;;;;7.33;5.30;;;8.90;99.90;;;;;;4956796;28;20451;-84
2022/10/04 07:16:19;;;;;;;10.40;5.40;;;9.00;99.90;;;;;;4956560;28;20462;-84
2022/10/04 07:18:59;;;;;;;9.57;5.00;;;9.10;99.90;;;;;;4956683;28;20451;-82
2022/10/04 07:21:29;;;;;;;8.13;5.10;;;;;;;;;;4955623;28;20471;-81
2022/10/04 07:24:00;;;;;;;6.33;4.40;;;9.30;99.90;;;;;;4956709;28;20452;-81
2022/10/04 07:26:34;;;;;;;9.33;5.77;;;9.20;99.90;;;;;;4956804;28;20542;-81
2022/10/04 07:29:20;;;;;;;10.20;5.37;;;9.30;99.90;;;;;;4956419;28;20546;-83
2022/10/04 07:31:52;;;;;;;10.13;6.00;;;9.40;99.90;;;;;;4956582;28;20494;-83
2022/10/04 07:34:26;;;;;;;8.40;6.23;;;9.50;99.90;;;;;;4954603;28;20531;-82
2022/10/04 07:36:55;;;;;;;7.53;4.90;;;9.50;99.90;;;;;;4956122;28;20462;-83
2022/10/04 07:39:26;;;;;;;8.30;5.43;;;9.60;99.90;;;;;;4956161;28;20450;-82
2022/10/04 07:41:57;;;;;;;6.10;4.70;;;9.70;99.90;;;;;;4956410;28;20455;-81
2022/10/04 07:44:35;;;;;;;7.90;5.17;;;9.70;99.90;;;;;;4956353;28;20510;-82
2022/10/04 07:47:13;;;;;;;13.13;5.70;;;9.70;99.90;;;;;;4958511;28;20465;-82
2022/10/04 07:49:40;;;;;;;12.30;8.33;;;;;;;;;;4978039;28;20447;-82
2022/10/04 07:52:23;;;;;;;12.17;7.83;;;;;;;;;;4966815;28;20855;-82
2022/10/04 07:55:00;;;;;;;7.17;5.70;;;10.00;99.90;;;;;;4956307;28;20447;-83
2022/10/04 07:57:36;;;;;;;8.17;5.00;;;9.90;99.90;;;;;;4956076;28;20848;-82
2022/10/04 08:00:09;;;;;;;10.80;5.13;;;;;;;;;;4955899;28;20458;-83
2022/10/04 08:02:48;;;;;;;7.73;4.77;;;10.20;99.90;;;;;;4955947;28;20479;-83
2022/10/04 08:05:22;;;;;;;5.03;4.17;;;10.50;99.90;;;;;;4968209;28;20442;-83
2022/10/04 08:08:07;;;;;;;14.67;5.90;;;10.70;99.90;;;;;;4975014;28;20509;-82
2022/10/04 08:10:41;;;;;;;7.17;4.90;;;10.80;99.90;;;;;;4972071;28;20450;-83
2022/10/04 08:13:22;;;;;;;5.97;5.10;;;10.90;99.90;;;;;;4971343;28;20868;-82
2022/10/04 08:15:51;;;;;;;8.90;4.83;;;11.30;99.90;;;;;;4974984;28;20457;-82
2022/10/04 08:18:29;;;;;;;5.80;4.93;;;11.40;99.90;;;;;;4975031;28;20458;-83
2022/10/04 08:20:58;;;;;;;10.50;4.93;;;11.40;99.90;;;;;;4973685;28;20476;-84
2022/10/04 08:23:46;;;;;;;7.00;5.17;;;;;;;;;;4974059;28;20461;-82
2022/10/04 08:26:22;;;;;;;9.63;4.93;;;11.80;99.90;;;;;;4974792;28;20841;-83
2022/10/04 08:32:00;;;;;;;7.03;4.50;;;12.00;99.90;;;;;;4974832;28;20497;-82
2022/10/04 08:34:43;;;;;;;11.97;5.37;;;12.10;99.90;;;;;;4973997;28;20665;-82
2022/10/04 08:37:23;;;;;;;5.60;4.50;;;12.40;99.90;;;;;;4974780;28;20458;-84
2022/10/04 08:40:00;;;;;;;9.10;4.00;;;12.50;99.90;;;;;;4974573;28;20971;-82
2022/10/04 08:43:03;;;;;;;5.13;3.50;;;12.40;99.90;;;;;;4974622;28;20462;-82
2022/10/04 08:45:51;;;;;;;5.60;3.67;;;12.40;99.90;;;;;;4969618;28;20901;-83
2022/10/04 08:49:16;;;;;;;4.83;3.20;;;12.50;99.90;;;;;;4974699;28;20466;-84
2022/10/04 08:52:20;;;;;;;6.40;3.93;;;12.40;99.90;;;;;;4973369;28;20494;-84
2022/10/04 08:55:31;;;;;;;4.73;3.83;;;12.50;99.90;;;;;;4974486;28;20465;-86
2022/10/04 08:58:35;;;;;;;6.90;3.20;;;12.90;99.90;;;;;;4974468;28;20457;-83
2022/10/04 09:01:27;;;;;;;5.73;4.10;;;13.40;99.90;;;;;;4974460;28;20454;-86
2022/10/04 09:04:45;;;;;;;4.33;3.87;;;14.00;99.90;;;;;;4974471;28;20454;-83
2022/10/04 09:07:29;;;;;;;4.70;3.10;;;;;;;;;;4964714;28;20465;-83
2022/10/04 09:10:29;;;;;;;5.33;4.17;;;14.80;99.90;;;;;;4974033;28;20461;-82
2022/10/04 09:13:30;;;;;;;5.70;3.50;;;14.00;99.90;;;;;;4974040;28;20931;-83
2022/10/04 09:16:11;;;;;;;4.13;3.73;;;14.20;99.90;;;;;;4974248;28;20467;-83
2022/10/04 09:19:01;;;;;;;4.37;2.90;;;14.60;99.90;;;;;;4974272;28;20446;-81
2022/10/04 09:21:42;;;;;;;6.07;3.93;;;15.00;99.90;;;;;;4972727;28;20450;-83
2022/10/04 09:24:32;;;;;;;7.90;3.07;;;14.70;99.90;;;;;;4974040;28;20462;-82
2022/10/04 09:27:18;;;;;;;3.33;3.03;;;14.50;99.90;;;;;;4974153;28;20512;-83
2022/10/04 09:30:03;;;;;;;6.10;3.90;;;15.20;99.90;;;;;;4972435;28;20537;-84
2022/10/04 09:32:58;;;;;;;7.30;3.70;;;15.10;99.90;;;;;;4973901;28;20993;-87
2022/10/04 09:35:59;;;;;;;4.07;2.73;;;14.90;99.90;;;;;;4975550;28;20582;-83
2022/10/04 09:38:51;;;;;;;3.30;2.40;;;14.70;99.90;;;;;;4954141;28;20453;-86
2022/10/04 09:41:47;;;;;;;3.20;2.70;;;14.60;99.90;;;;;;4977941;28;20450;-83
2022/10/04 09:44:53;;;;;;;4.20;3.17;;;14.90;99.90;;;;;;4965475;28;20458;-85
2022/10/04 09:47:30;;;;;;;10.53;2.83;;;15.00;99.90;;;;;;4978138;28;20538;-83
2022/10/04 09:50:36;;;;;;;7.50;2.50;;;15.60;99.90;;;;;;4976694;28;20465;-85
2022/10/04 09:53:31;;;;;;;3.87;3.00;;;16.20;99.90;;;;;;4956294;28;20968;-90
2022/10/04 09:56:17;;;;;;;6.10;2.70;;;17.00;99.90;;;;;;4967829;28;20828;-84
2022/10/04 09:59:08;;;;;;;6.07;2.57;;;17.00;99.90;;;;;;4977658;28;20541;-88
2022/10/04 10:01:40;;;;;;;7.40;2.60;;;17.60;99.90;;;;;;4975389;28;20530;-87
2022/10/04 10:04:35;;;;;;;4.60;2.93;;;17.70;99.90;;;;;;4978074;28;20458;-84
2022/10/04 10:07:18;;;;;;;4.17;2.80;;;17.90;99.90;;;;;;4977455;28;20461;-84
2022/10/04 10:15:59;;;;;;;4.50;2.83;;;18.80;99.00;;;;;;4966663;28;21035;-87
2022/10/04 10:18:41;;;;;;;2.80;2.37;;;18.50;99.90;;;;;;4960448;28;20466;-85
2022/10/04 10:21:19;;;;;;;3.17;2.50;;;18.40;99.90;;;;;;4981308;28;20454;-84
2022/10/04 10:24:19;;;;;;;4.50;2.67;;;17.20;99.90;;;;;;4967323;28;20908;-84
2022/10/04 10:27:00;;;;;;;4.20;2.70;;;17.60;99.90;;;;;;4955340;28;20801;-87
2022/10/04 10:30:03;;;;;;;4.30;3.27;;;17.40;97.10;;;;;;4958379;28;20513;-85
2022/10/04 10:32:54;;;;;;;4.37;3.20;;;18.40;99.80;;;;;;4958058;28;20853;-85
2022/10/04 10:35:37;;;;;;;6.00;3.30;;;;;;;;;;4956833;28;20455;-87
2022/10/04 10:38:09;;;;;;;4.47;2.83;;;;;;;;;;4958133;28;20467;-86
2022/10/04 10:40:49;;;;;;;5.03;2.67;;;18.70;98.60;;;;;;4957904;28;20463;-88
2022/10/04 10:43:29;;;;;;;4.87;2.53;;;18.60;98.70;;;;;;4957388;28;20450;-85
2022/10/04 10:46:06;;;;;;;2.77;2.57;;;17.90;99.50;;;;;;4956786;28;20982;-94
2022/10/04 10:49:03;;;;;;;2.33;1.87;;;17.10;99.90;;;;;;4957704;28;20939;-85
2022/10/04 10:51:59;;;;;;;5.50;2.17;;;16.90;99.90;;;;;;4956753;28;20502;-84
2022/10/04 10:54:48;;;;;;;3.50;2.40;;;18.10;99.90;;;;;;4957421;28;20458;-85
2022/10/04 10:57:33;;;;;;;4.53;2.30;;;17.60;99.90;;;;;;4957160;28;20859;-86
2022/10/04 11:00:20;;;;;;;2.60;2.13;;;18.60;99.90;;;;;;4957194;28;20447;-86
2022/10/04 11:03:19;;;;;;;2.87;2.67;;;19.30;97.80;;;;;;4957469;28;20463;-87
2022/10/04 11:06:06;;;;;;;4.53;2.57;;;;;;;;;;4895410;29;20458;-88
2022/10/04 11:09:26;;;;;;;2.33;2.10;;;19.70;98.80;;;;;;4898693;29;20912;-87
2022/10/04 11:12:37;;;;;;;3.63;2.47;;;19.40;98.40;;;;;;4882849;29;20455;-88
2022/10/04 11:15:40;;;;;;;3.60;2.90;;;19.40;97.20;;;;;;4898051;29;20501;-86
2022/10/04 11:18:14;;;;;;;3.73;2.50;;;;;;;;;;4898151;29;20861;-87
2022/10/04 11:21:31;;;;;;;5.00;2.60;;;20.00;98.30;;;;;;4896696;29;20560;-90
2022/10/04 11:24:13;;;;;;;2.73;2.10;;;;;;;;;;4898958;29;20858;-86
2022/10/04 11:26:56;;;;;;;4.27;2.60;;;;;;;;;;4948582;28;20469;-89
2022/10/04 11:29:38;;;;;;;4.40;2.40;;;;;;;;;;4956743;28;20486;-89
2022/10/04 11:32:33;;;;;;;2.83;2.50;;;;;;;;;;4957007;28;20931;-85
2022/10/04 11:35:11;;;;;;;3.37;2.50;;;;;;;;;;4955790;28;20443;-86
2022/10/04 11:37:52;;;;;;;2.90;2.40;;;19.90;96.60;;;;;;4956745;28;20451;-87
2022/10/04 11:40:34;;;;;;;3.13;2.60;;;19.10;98.60;;;;;;4956706;28;20466;-85
2022/10/04 11:43:31;;;;;;;5.67;2.30;;;19.20;97.60;;;;;;4956434;28;20462;-84
2022/10/04 11:46:21;;;;;;;2.47;2.27;;;19.30;97.40;;;;;;4956346;28;20456;-86
2022/10/04 11:48:56;;;;;;;3.33;2.40;;;;;;;;;;4958578;28;20482;-85
2022/10/04 11:51:57;;;;;;;3.17;2.60;;;19.40;98.00;;;;;;4957176;28;20458;-84
2022/10/04 11:54:59;;;;;;;5.10;2.80;;;19.50;96.90;;;;;;4956469;28;21001;-86
2022/10/04 11:57:38;;;;;;;4.40;2.13;;;19.50;96.90;;;;;;4956508;28;20451;-85
2022/10/04 12:00:11;;;;;;;4.87;2.27;;;;;;;;;;4956212;28;20450;-85
2022/10/04 12:03:01;;;;;;;5.07;2.80;;;19.40;97.70;;;;;;4956593;28;20461;-85
2022/10/04 12:05:39;;;;;;;3.40;2.53;;;;;;;;;;4955548;28;20459;-85
2022/10/04 12:08:14;;;;;;;4.13;2.40;;;;;;;;;;4957330;28;20455;-85
2022/10/04 12:10:42;;;;;;;6.40;1.87;;;;;;;;;;4956776;28;20447;-85
2022/10/04 12:13:48;;;;;;;3.27;2.50;;;20.90;96.00;;;;;;4960417;28;20491;-85
2022/10/04 12:16:53;;;;;;;2.87;2.57;;;20.60;96.40;;;;;;4957424;28;20454;-84
2022/10/04 12:19:38;;;;;;;4.13;2.50;;;;;;;;;;4938537;28;20510;-85
2022/10/04 12:22:38;;;;;;;3.40;2.30;;;21.40;95.20;;;;;;4958419;28;20506;-90
2022/10/04 12:25:39;;;;;;;2.80;2.30;;;20.30;95.40;;;;;;4955724;28;20454;-87
2022/10/04 12:28:39;;;;;;;4.10;2.00;;;20.40;94.70;;;;;;4956025;28;20859;-83
2022/10/04 12:31:16;;;;;;;3.83;1.97;;;19.40;96.80;;;;;;4958433;28;20451;-83
2022/10/04 12:33:52;;;;;;;2.60;2.37;;;19.80;96.90;;;;;;4956412;28;20871;-86
2022/10/04 12:36:24;;;;;;;8.07;2.30;;;;;;;;;;4954936;28;20455;-84
2022/10/04 12:39:13;;;;;;;5.10;2.27;;;20.00;96.20;;;;;;4956178;28;20463;-83
2022/10/04 12:41:53;;;;;;;2.50;1.77;;;20.00;95.60;;;;;;4955544;28;20455;-83
2022/10/04 12:44:31;;;;;;;5.67;2.53;;;20.30;94.80;;;;;;4955382;28;20474;-84
2022/10/04 12:47:29;;;;;;;2.33;2.13;;;20.30;95.60;;;;;;4956426;28;20462;-82
2022/10/04 12:50:07;;;;;;;4.30;1.93;;;20.00;96.30;;;;;;4955508;28;20467;-83
2022/10/04 12:52:44;;;;;;;1.90;1.70;;;19.60;95.00;;;;;;4963530;28;20506;-82
2022/10/04 12:55:21;;;;;;;1.90;1.80;;;;;;;;;;4978257;28;20459;-87
2022/10/04 12:57:53;;;;;;;3.00;2.10;;;;;;;;;;4959343;28;20525;-89
2022/10/04 13:00:21;;;;;;;2.00;1.83;;;;;;;;;;4955998;28;20801;-89
2022/10/04 13:03:08;;;;;;;3.10;1.70;;;20.40;93.30;;;;;;4955592;28;20463;-83
2022/10/04 13:05:42;;;;;;;3.10;1.80;;;20.90;93.90;;;;;;4954300;28;20822;-85
2022/10/04 13:08:25;;;;;;;5.20;1.90;;;21.60;91.20;;;;;;4955089;28;20458;-84
2022/10/04 13:11:03;;;;;;;2.03;1.70;;;;;;;;;;4954727;28;20490;-84
2022/10/04 13:13:54;;;;;;;2.40;1.73;;;22.20;91.80;;;;;;4955063;28;20490;-86
2022/10/04 13:16:28;;;;;;;6.10;2.20;;;22.50;90.40;;;;;;4954941;28;20816;-86
2022/10/04 13:18:59;;;;;;;2.83;1.93;;;;;;;;;;4955319;28;20816;-86
2022/10/04 13:21:46;;;;;;;3.77;2.60;;;;;;;;;;4954095;28;20470;-88
2022/10/04 13:24:17;;;;;;;2.30;1.70;;;;;;;;;;4955019;28;20465;-88
2022/10/04 13:26:47;;;;;;;2.20;1.50;;;;;;;;;;4954727;28;20461;-85
2022/10/04 13:29:24;;;;;;;2.40;1.60;;;21.70;87.30;;;;;;4954859;28;20959;-85
2022/10/04 13:31:53;;;;;;;3.03;1.93;;;;;;;;;;4954761;28;20459;-86
2022/10/04 13:34:30;;;;;;;1.90;1.70;;;22.30;85.20;;;;;;4954519;28;20502;-85
2022/10/04 13:37:31;;;;;;;1.77;1.50;;;22.20;84.70;;;;;;4954565;28;21002;-86
2022/10/04 13:40:21;;;;;;;2.10;1.33;;;22.70;84.00;;;;;;4954660;28;20455;-84
2022/10/04 13:43:12;;;;;;;4.40;1.47;;;22.40;84.70;;;;;;4955172;28;20455;-84
2022/10/04 13:46:01;;;;;;;2.00;1.40;;;22.00;87.30;;;;;;4953156;28;20473;-86
2022/10/04 13:48:41;;;;;;;2.80;1.70;;;22.20;84.50;;;;;;4954764;28;20794;-89
2022/10/04 13:51:22;;;;;;;3.87;1.50;;;22.60;81.10;;;;;;4953634;28;20501;-86
2022/10/04 13:57:05;;;;;;;1.70;1.20;;;23.20;78.10;;;;;;4954571;28;20426;-89
2022/10/04 13:59:44;;;;;;;1.53;1.20;;;22.70;78.50;;;;;;4954949;29;20456;-90
2022/10/04 14:02:53;;;;;;;1.60;1.40;;;21.40;90.60;;;;;;4955119;28;20455;-88
2022/10/04 14:05:50;;;;;;;1.93;1.53;;;;;;;;;;4958700;28;20546;-87
2022/10/04 14:08:50;;;;;;;2.30;1.67;;;23.40;70.90;;;;;;4969373;28;20470;-84
2022/10/04 14:11:42;;;;;;;3.00;1.30;;;21.80;80.40;;;;;;4971266;28;20458;-86
2022/10/04 14:14:33;;;;;;;1.73;1.37;;;22.50;77.80;;;;;;4973481;28;20494;-85
2022/10/04 14:17:22;;;;;;;1.87;1.50;;;;;;;;;;4973905;28;20865;-85
2022/10/04 14:20:25;;;;;;;1.33;1.13;;;22.20;67.80;;;;;;4972404;28;20462;-84
2022/10/04 14:23:07;;;;;;;2.40;2.20;;;;;;;;;;4956323;28;20476;-87
2022/10/04 14:25:49;;;;;;;2.70;1.80;;;;;;;;;;4976963;28;20449;-86
2022/10/04 14:28:56;;;;;;;8.67;2.03;;;22.70;79.00;;;;;;4977032;28;20458;-90
2022/10/04 14:31:45;;;;;;;4.90;2.40;;;23.10;80.20;;;;;;4976860;28;20516;-85
2022/10/04 14:34:39;;;;;;;6.27;2.30;;;22.80;80.30;;;;;;4976717;28;20497;-85
2022/10/04 14:37:36;;;;;;;6.57;3.10;;;23.00;77.40;;;;;;4976820;28;20450;-87